DL4ABR-6 Weather Reports


time (UTC)temp
F
wind
direction
speed
knots
gust
knots
rain 1hr
in
rain 24hr
in
rain mn
in
humidity
%
barometer
mb
20260506133504 51 139 0.0 0.0 0.00 0.00 0.85 99 1003.2
20260506132210 51 156 0.0 0.0 0.00 0.00 0.85 99 1003.3
20260506130950 51 151 0.0 0.0 0.00 0.00 0.85 99 1003.1
20260506125744 51 124 0.9 1.7 0.00 0.00 0.84 99 1003.0
20260506124535 50 157 0.9 0.9 0.00 0.00 0.84 99 1003.1
20260506123320 50 105 0.9 0.9 0.00 0.00 0.83 99 1002.9
20260506122115 50 149 1.7 1.7 0.00 0.00 0.83 99 1003.0
20260506120620 50 167 0.0 0.9 0.00 0.00 0.83 99 1003.0
20260506115242 50 151 0.0 0.0 0.00 0.00 0.82 99 1002.9
20260506113950 49 124 0.0 0.9 0.00 0.00 0.81 99 1003.1
20260506112720 49 167 0.0 0.0 0.00 0.00 0.81 99 1002.9
20260506111230 49 126 0.0 0.0 0.00 0.00 0.81 99 1002.9
20260506110030 50 156 0.0 0.0 0.00 0.00 0.81 99 1002.8
20260506104754 49 157 0.0 0.0 0.00 0.00 0.81 99 1002.8
20260506103305 49 151 0.0 0.0 0.00 0.00 0.81 99 1002.9
20260506102050 49 155 0.0 0.0 0.00 0.00 0.81 99 1002.7
20260506100750 48 121 0.0 0.9 0.00 0.00 0.81 99 1002.9
20260506095306 48 152 0.0 0.0 0.00 0.00 0.80 99 1002.8
20260506094050 48 213 0.9 0.9 0.00 0.00 0.80 99 1002.6
20260506092800 48 137 0.0 0.0 0.00 0.00 0.79 99 1002.7
20260506091440 47 143 0.0 0.0 0.00 0.00 0.78 99 1002.7
20260506090144 47 132 0.0 0.0 0.00 0.00 0.77 99 1002.5
20260506084930 47 93 0.0 0.0 0.00 0.00 0.76 99 1002.5
20260506083635 47 145 0.0 0.0 0.00 0.00 0.73 99 1002.5
20260506082330 46 117 0.0 0.0 0.00 0.00 0.72 99 1002.3
20260506081015 46 182 0.0 0.9 0.00 0.00 0.70 99 1002.4
20260506072710 46 137 0.0 0.0 0.00 0.00 0.63 99 1002.3
20260506071315 46 132 0.0 0.0 0.00 0.00 0.62 99 1002.1
20260506061755 47 151 0.0 0.0 0.00 0.00 0.55 99 1001.9
20260506060405 47 145 0.0 0.0 0.00 0.00 0.54 99 1001.9
20260506050758 47 152 0.0 0.0 0.00 0.00 0.48 99 1001.9
20260506044100 47 152 0.0 0.0 0.00 0.00 0.44 99 1001.9
20260506042635 47 146 0.0 0.0 0.00 0.00 0.41 99 1001.8
20260506041155 47 153 0.0 0.0 0.00 0.00 0.36 99 1002.0
20260506035840 47 153 0.0 0.0 0.00 0.00 0.32 99 1002.1
20260506034635 47 139 0.0 0.0 0.00 0.00 0.28 99 1001.9
20260506033215 47 119 0.0 0.0 0.00 0.00 0.25 99 1002.0
20260506031850 48 132 0.0 0.0 0.00 0.00 0.22 99 1002.5
20260506030530 48 139 0.0 0.0 0.00 0.00 0.20 99 1002.3
20260506025200 48 153 0.0 0.0 0.00 0.00 0.16 99 1002.4
20260506023730 49 123 0.9 0.9 0.00 0.00 0.14 99 1002.5
20260506022520 49 133 0.0 0.0 0.00 0.00 0.11 99 1002.6
20260506021204 49 170 0.0 0.9 0.00 0.00 0.09 99 1002.6
20260506015714 49 138 0.0 0.0 0.00 0.00 0.06 99 1002.5
20260506014435 50 139 0.0 0.0 0.00 0.00 0.05 99 1002.8
20260506013220 50 152 0.0 0.0 0.00 0.00 0.03 99 1002.8
20260506011854 50 146 0.0 0.0 0.00 0.00 0.02 99 1002.6
20260506010555 50 130 0.0 0.0 0.00 0.00 0.02 99 1002.9
20260506005306 50 136 0.0 0.0 0.00 0.00 0.01 99 1002.8
20260506003855 51 125 0.0 0.0 0.00 0.00 0.00 99 1003.1
20260506002440 51 146 0.0 0.9 0.00 0.00 0.00 99 1003.1
20260506001100 51 152 0.0 0.0 0.00 0.00 0.00 99 1003.2
20260505235717 51 152 0.0 0.0 0.00 0.00 0.00 99 1003.6
20260505234510 51 145 0.0 0.0 0.00 0.00 0.00 99 1003.6
20260505233230 51 136 0.0 0.0 0.00 0.00 0.00 99 1003.7
20260505231735 51 153 0.0 0.0 0.00 0.00 0.00 99 1003.8
20260505230500 51 132 0.0 0.0 0.00 0.00 0.00 99 1003.6
20260505225105 51 151 0.0 0.0 0.00 0.00 0.00 99 1003.9
20260505223815 51 151 0.0 0.0 0.00 0.00 0.00 99 1003.8
20260505222610 51 49 0.9 1.7 0.00 0.00 0.00 99 1003.9
20260505221315 51 133 0.0 0.0 0.00 0.00 0.00 99 1004.0
20260505215950 51 177 0.9 1.7 0.00 0.00 0.15 99 1004.3
20260505214659 51 151 0.0 0.0 0.00 0.00 0.15 99 1004.2
20260505213445 51 106 0.0 0.9 0.00 0.00 0.15 99 1004.1
20260505212144 51 76 0.9 1.7 0.00 0.00 0.15 99 1004.1
20260505210845 51 123 0.0 0.0 0.00 0.00 0.15 99 1004.4
20260505205614 52 139 0.0 0.0 0.00 0.00 0.15 98 1004.4
20260505204324 52 139 0.0 0.0 0.00 0.00 0.15 98 1004.7
20260505202915 52 131 1.7 2.6 0.00 0.00 0.15 98 1004.5
20260505201659 52 139 0.0 0.0 0.00 0.00 0.15 97 1004.4
20260505200450 52 155 0.0 0.0 0.00 0.00 0.15 97 1004.6
20260505195110 52 139 0.0 0.0 0.00 0.00 0.15 96 1004.4
20260505193800 53 159 0.0 0.9 0.00 0.00 0.15 96 1004.6
20260505192600 53 138 0.0 0.0 0.00 0.00 0.15 96 1004.5
20260505191144 53 149 0.0 0.0 0.00 0.00 0.15 96 1004.6
20260505185939 53 163 0.0 0.0 0.00 0.00 0.15 96 1004.3
20260505184610 53 152 0.0 0.0 0.00 0.00 0.15 96 1004.5
20260505183240 53 156 0.0 0.0 0.00 0.00 0.15 96 1004.3
20260505181840 53 214 0.0 0.0 0.00 0.00 0.15 95 1004.6
20260505180510 53 146 0.0 0.0 0.00 0.00 0.15 95 1004.5
20260505175140 54 145 0.0 0.0 0.00 0.00 0.15 95 1004.5
20260505173930 54 121 0.0 0.0 0.00 0.00 0.15 95 1004.5
20260505172619 54 165 0.0 0.0 0.00 0.00 0.15 94 1004.5
20260505171355 55 101 0.0 0.9 0.00 0.00 0.15 94 1004.6
20260505170055 55 148 0.0 0.0 0.00 0.00 0.15 94 1004.8
20260505164615 55 134 0.0 0.0 0.00 0.00 0.15 94 1004.6
20260505163230 55 124 0.0 0.0 0.00 0.00 0.15 94 1004.7
20260505161755 55 154 0.0 0.0 0.00 0.00 0.15 94 1004.9
20260505160454 55 157 0.0 0.0 0.00 0.00 0.15 95 1004.7
20260505152225 56 131 0.0 0.0 0.00 0.00 0.15 94 1005.3
20260505150835 56 128 0.0 0.0 0.00 0.00 0.15 94 1005.0
20260505140124 57 156 0.0 0.0 0.00 0.00 0.15 96 1005.4